Time;durP1;ratioP1;P1;durP2;ratioP2;P2;SDS_P1;SDS_P2;PMS_P1;PMS_P2;Temp;Humidity;BMP_temperature;BMP_pressure;BME280_temperature;BME280_humidity;BME280_pressure;Samples;Min_cycle;Max_cycle;Signal;HPM_P1;HPM_P2
2023/12/30 00:01:21;;;;;;;13.80;7.90;;;;;;;9.61;58.61;98622.98;232085;198;151504;-57
2023/12/30 00:06:25;;;;;;;12.50;6.80;;;;;;;9.44;58.96;98628.11;232122;204;139579;-57
2023/12/30 00:11:28;;;;;;;17.80;8.30;;;;;;;9.39;59.31;98629.70;231547;204;140304;-54
2023/12/30 00:16:31;;;;;;;11.60;7.30;;;;;;;9.26;59.41;98631.59;232075;198;152105;-56
2023/12/30 00:21:35;;;;;;;14.50;7.10;;;;;;;9.12;59.93;98629.48;231972;198;136830;-58
2023/12/30 00:26:38;;;;;;;12.50;6.80;;;;;;;8.98;60.10;98625.04;232151;198;137957;-57
2023/12/30 00:31:45;;;;;;;13.10;6.60;;;;;;;8.76;60.42;98629.38;231674;197;152694;-55
2023/12/30 00:36:48;;;;;;;15.30;6.90;;;;;;;8.65;60.80;98637.67;232161;204;137102;-57
2023/12/30 00:41:52;;;;;;;13.90;6.50;;;;;;;8.46;61.11;98631.35;232203;202;137234;-56
2023/12/30 00:46:55;;;;;;;13.70;6.60;;;;;;;8.39;61.54;98630.38;232071;204;151776;-55
2023/12/30 00:51:58;;;;;;;14.80;5.50;;;;;;;8.31;61.73;98625.02;232161;204;137119;-56
2023/12/30 00:57:02;;;;;;;12.30;6.30;;;;;;;8.21;61.85;98625.73;232118;197;137802;-55
2023/12/30 01:02:06;;;;;;;12.10;6.00;;;;;;;8.15;62.05;98632.13;232027;198;152387;-57
2023/12/30 01:07:09;;;;;;;11.30;6.10;;;;;;;8.02;62.28;98626.19;231617;201;137073;-54
2023/12/30 01:12:13;;;;;;;11.20;5.80;;;;;;;7.95;62.46;98625.68;232152;197;136881;-54
2023/12/30 01:17:16;;;;;;;10.90;5.30;;;;;;;7.85;62.80;98623.45;231978;204;151446;-55
2023/12/30 01:22:19;;;;;;;8.10;5.40;;;;;;;7.84;63.05;98624.92;232210;204;137035;-55
2023/12/30 01:27:24;;;;;;;12.80;6.70;;;;;;;7.77;63.07;98628.13;231973;198;137301;-57
2023/12/30 01:32:27;;;;;;;7.80;5.00;;;;;;;7.71;63.40;98625.67;231956;204;151561;-56
2023/12/30 01:37:30;;;;;;;9.10;5.40;;;;;;;7.67;63.52;98618.30;231858;197;137809;-55
2023/12/30 01:42:34;;;;;;;9.50;5.50;;;;;;;7.68;63.72;98615.77;231980;204;137659;-56
2023/12/30 01:47:38;;;;;;;7.90;4.80;;;;;;;7.66;63.72;98601.96;232072;204;151553;-58
2023/12/30 01:52:46;;;;;;;7.50;4.10;;;;;;;7.65;63.90;98588.09;231799;198;136794;-56
2023/12/30 01:57:49;;;;;;;8.00;3.90;;;;;;;7.73;64.04;98575.73;232149;204;140261;-59
2023/12/30 02:02:53;;;;;;;4.60;3.10;;;;;;;7.97;63.87;98569.77;231908;204;152022;-58
2023/12/30 02:07:57;;;;;;;5.60;3.30;;;;;;;8.31;63.51;98563.87;231551;201;137041;-59
2023/12/30 02:13:00;;;;;;;5.00;3.40;;;;;;;8.60;62.86;98561.96;232160;204;137751;-58
2023/12/30 02:18:04;;;;;;;5.40;3.80;;;;;;;8.81;62.00;98562.93;232083;198;151254;-59
2023/12/30 02:23:07;;;;;;;6.20;3.90;;;;;;;8.91;61.52;98563.04;232036;198;136500;-58
2023/12/30 02:28:12;;;;;;;6.20;3.80;;;;;;;8.92;61.13;98564.54;231477;200;138397;-55
2023/12/30 02:33:16;;;;;;;6.70;4.00;;;;;;;8.80;61.08;98559.27;231787;201;152198;-56
2023/12/30 02:38:19;;;;;;;8.50;4.00;;;;;;;8.62;61.07;98558.09;231728;197;137507;-54
2023/12/30 02:43:25;;;;;;;9.40;4.30;;;;;;;8.42;61.43;98549.59;232218;204;136764;-58
2023/12/30 02:48:28;;;;;;;6.20;4.20;;;;;;;8.37;61.67;98546.67;231943;197;151655;-54
2023/12/30 02:53:31;;;;;;;7.00;4.40;;;;;;;8.26;61.58;98543.81;231692;198;136812;-55
2023/12/30 02:58:35;;;;;;;6.30;3.40;;;;;;;8.17;61.82;98544.17;231594;197;136894;-55
2023/12/30 03:03:38;;;;;;;5.70;3.50;;;;;;;8.37;62.46;98533.61;231968;198;151273;-54
2023/12/30 03:08:41;;;;;;;4.80;3.10;;;;;;;8.66;62.17;98526.21;231552;204;138077;-54
2023/12/30 03:13:46;;;;;;;4.00;3.00;;;;;;;8.81;62.00;98516.60;232107;197;137459;-56
2023/12/30 03:18:49;;;;;;;6.80;2.90;;;;;;;8.99;61.85;98514.36;231647;204;151207;-57
2023/12/30 03:23:53;;;;;;;2.90;2.40;;;;;;;9.16;61.59;98503.20;232125;204;137099;-56
2023/12/30 03:28:56;;;;;;;4.60;2.80;;;;;;;9.31;61.27;98494.97;231973;199;137261;-56
2023/12/30 03:34:00;;;;;;;3.60;2.40;;;;;;;9.47;60.92;98490.55;232159;201;151516;-57
2023/12/30 03:39:06;;;;;;;5.10;3.10;;;;;;;9.60;60.61;98486.28;232160;204;136524;-55
2023/12/30 03:44:10;;;;;;;3.60;2.70;;;;;;;9.73;60.15;98482.61;231624;198;136820;-57
2023/12/30 03:49:13;;;;;;;3.40;2.60;;;;;;;9.81;59.99;98477.25;231157;201;151482;-55
2023/12/30 03:54:17;;;;;;;3.80;2.50;;;;;;;9.90;59.61;98485.35;231726;204;136951;-57
2023/12/30 03:59:20;;;;;;;3.00;2.40;;;;;;;9.90;59.38;98490.34;231975;201;138324;-57
2023/12/30 04:04:23;;;;;;;3.60;2.50;;;;;;;9.92;59.39;98492.80;231945;198;152782;-57
2023/12/30 04:09:26;;;;;;;2.40;2.00;;;;;;;9.97;59.15;98497.77;232077;201;136805;-58
2023/12/30 04:14:30;;;;;;;4.20;2.70;;;;;;;10.00;59.00;98499.88;231618;201;137312;-55
2023/12/30 04:19:33;;;;;;;3.80;2.70;;;;;;;10.05;58.83;98503.64;232122;197;151471;-56
2023/12/30 04:24:36;;;;;;;4.00;2.70;;;;;;;10.09;58.59;98498.42;232004;201;137642;-56
2023/12/30 04:29:39;;;;;;;3.50;2.40;;;;;;;10.10;58.47;98493.04;232238;197;138553;-57
2023/12/30 04:34:43;;;;;;;4.00;2.70;;;;;;;10.03;58.42;98483.72;232107;202;152094;-60
2023/12/30 04:39:46;;;;;;;5.90;3.00;;;;;;;9.94;58.30;98476.41;231983;204;138086;-56
2023/12/30 04:44:50;;;;;;;4.60;2.90;;;;;;;9.77;58.43;98473.33;232022;197;136512;-56
2023/12/30 04:49:53;;;;;;;5.40;3.00;;;;;;;9.70;58.71;98490.73;232065;201;152465;-58
2023/12/30 04:54:57;;;;;;;5.40;3.20;;;;;;;9.69;58.69;98488.73;232200;201;136836;-57
2023/12/30 05:00:00;;;;;;;5.40;3.00;;;;;;;9.67;58.70;98496.43;232470;197;137154;-57
2023/12/30 05:05:04;;;;;;;4.90;3.10;;;;;;;9.68;58.78;98494.95;231889;198;153182;-57
2023/12/30 05:10:09;;;;;;;5.10;3.10;;;;;;;9.67;58.77;98509.58;232206;204;136643;-55
2023/12/30 05:15:13;;;;;;;4.40;2.80;;;;;;;9.65;58.75;98502.60;232009;204;138804;-58
2023/12/30 05:20:17;;;;;;;6.60;2.90;;;;;;;9.68;58.64;98499.20;232155;197;152578;-58
2023/12/30 05:25:20;;;;;;;3.90;2.50;;;;;;;9.71;58.53;98498.52;231883;199;137666;-55
2023/12/30 05:30:23;;;;;;;3.40;2.60;;;;;;;9.76;58.39;98511.10;232335;204;137129;-56
2023/12/30 05:35:27;;;;;;;6.20;2.90;;;;;;;9.81;58.16;98518.23;231549;204;151319;-54
2023/12/30 05:40:30;;;;;;;3.90;2.40;;;;;;;9.84;57.92;98520.88;231572;204;137027;-56
2023/12/30 05:45:34;;;;;;;3.10;2.20;;;;;;;9.86;57.59;98531.65;232137;201;137490;-56
2023/12/30 05:50:38;;;;;;;3.50;2.10;;;;;;;9.89;57.65;98537.48;231985;204;152753;-55
2023/12/30 05:55:41;;;;;;;2.50;2.00;;;;;;;9.91;57.47;98536.84;232102;200;137034;-55
2023/12/30 06:00:45;;;;;;;2.90;2.00;;;;;;;9.96;57.44;98542.55;232127;197;136335;-55
2023/12/30 06:05:48;;;;;;;2.90;2.20;;;;;;;10.03;57.21;98549.30;232224;204;151389;-57
2023/12/30 06:10:53;;;;;;;2.80;1.80;;;;;;;10.05;57.17;98556.84;232084;204;137676;-59
2023/12/30 06:15:57;;;;;;;3.10;1.80;;;;;;;10.06;57.18;98566.85;231974;198;138318;-59
2023/12/30 06:21:03;;;;;;;2.20;1.50;;;;;;;10.07;57.14;98571.55;232068;204;152869;-55
2023/12/30 06:26:06;;;;;;;;;;;;;;;10.11;57.18;98579.95;231810;201;137152;-55
2023/12/30 06:31:09;;;;;;;1.50;1.30;;;;;;;10.13;57.23;98575.40;232047;197;135403;-58
2023/12/30 06:36:21;;;;;;;2.10;1.30;;;;;;;10.16;57.15;98573.61;232027;198;151753;-58
2023/12/30 06:41:24;;;;;;;2.00;1.30;;;;;;;10.24;57.04;98565.33;231998;202;137590;-57
2023/12/30 06:46:27;;;;;;;1.80;1.40;;;;;;;10.24;57.06;98567.55;231509;197;137045;-59
2023/12/30 06:51:30;;;;;;;5.00;1.40;;;;;;;10.28;56.86;98567.52;231937;197;151379;-56
2023/12/30 06:56:34;;;;;;;2.00;1.30;;;;;;;10.33;56.88;98571.25;231559;197;137292;-55
2023/12/30 07:01:40;;;;;;;1.70;1.00;;;;;;;10.37;56.77;98573.43;231402;198;137081;-55
2023/12/30 07:06:43;;;;;;;2.10;1.50;;;;;;;10.39;56.48;98581.61;231756;197;151339;-55
2023/12/30 07:11:47;;;;;;;2.60;1.40;;;;;;;10.43;56.38;98585.48;232105;198;137635;-53
2023/12/30 07:16:50;;;;;;;3.20;1.50;;;;;;;10.46;56.32;98591.84;231743;198;137645;-56
2023/12/30 07:21:54;;;;;;;2.70;1.30;;;;;;;10.48;56.42;98598.94;231867;204;152871;-55
2023/12/30 07:26:58;;;;;;;2.50;1.60;;;;;;;10.55;56.27;98604.45;232046;204;136650;-58
2023/12/30 07:32:04;;;;;;;3.10;1.60;;;;;;;10.62;56.08;98600.27;231983;198;137618;-60
2023/12/30 07:37:08;;;;;;;2.00;1.30;;;;;;;10.66;56.01;98602.16;231865;201;151981;-59
2023/12/30 07:42:12;;;;;;;4.50;1.60;;;;;;;10.70;55.99;98586.60;232136;198;137618;-59
2023/12/30 07:47:15;;;;;;;3.20;1.60;;;;;;;10.73;55.72;98580.35;232078;198;137540;-59
2023/12/30 07:52:18;;;;;;;45.50;33.70;;;;;;;10.75;55.75;98596.17;231788;204;151730;-60
2023/12/30 07:57:22;;;;;;;4.10;2.50;;;;;;;10.83;55.25;98601.13;231944;205;138522;-59
2023/12/30 08:02:27;;;;;;;8.70;4.70;;;;;;;10.87;54.87;98604.17;232071;197;157872;-59
2023/12/30 08:07:31;;;;;;;3.30;2.00;;;;;;;10.89;54.64;98609.57;232088;204;151607;-59
2023/12/30 08:12:36;;;;;;;3.20;1.80;;;;;;;10.94;54.36;98603.56;231936;198;137387;-60
2023/12/30 08:17:40;;;;;;;;;;;;;;;10.94;54.31;98602.48;232277;198;137709;-58
2023/12/30 08:22:44;;;;;;;2.60;1.60;;;;;;;10.96;54.34;98596.34;232088;197;151268;-57
2023/12/30 08:27:47;;;;;;;4.40;1.70;;;;;;;10.97;54.25;98597.16;231420;204;140529;-60
2023/12/30 08:32:51;;;;;;;65.30;40.60;;;;;;;10.97;54.49;98594.44;232107;200;138194;-59
2023/12/30 08:37:54;;;;;;;5.50;3.40;;;;;;;11.03;54.43;98601.30;231869;204;151455;-63
2023/12/30 08:42:57;;;;;;;2.90;1.50;;;;;;;11.05;54.27;98604.01;231885;201;138020;-61
2023/12/30 08:48:01;;;;;;;3.60;1.40;;;;;;;11.11;54.04;98610.88;231658;197;137130;-62
2023/12/30 08:53:04;;;;;;;8.90;4.30;;;;;;;11.20;54.18;98605.27;231882;201;152329;-61
2023/12/30 08:58:08;;;;;;;2.40;1.20;;;;;;;11.32;53.78;98610.09;231812;204;136987;-68
2023/12/30 09:03:11;;;;;;;3.70;1.00;;;;;;;11.39;53.33;98618.79;231605;204;137290;-62
2023/12/30 09:08:15;;;;;;;2.70;1.10;;;;;;;11.43;53.16;98615.81;231995;198;152504;-61
2023/12/30 09:13:18;;;;;;;120.40;83.70;;;;;;;11.49;53.18;98606.72;232018;204;138223;-65
2023/12/30 09:18:21;;;;;;;3.00;1.90;;;;;;;11.59;53.15;98612.20;232233;198;137022;-61
2023/12/30 09:23:25;;;;;;;4.00;1.40;;;;;;;11.67;52.83;98608.79;231954;200;151545;-63
2023/12/30 09:28:28;;;;;;;5.30;1.20;;;;;;;11.77;52.74;98610.90;232050;204;136726;-62
2023/12/30 09:33:31;;;;;;;4.70;1.30;;;;;;;11.79;52.27;98612.83;231897;202;137503;-63
2023/12/30 09:38:35;;;;;;;26.40;17.90;;;;;;;11.86;52.39;98611.50;231991;197;151581;-64
2023/12/30 09:43:40;;;;;;;7.30;5.10;;;;;;;11.93;52.14;98622.16;232070;204;137533;-61
2023/12/30 09:48:46;;;;;;;2.30;1.20;;;;;;;11.98;51.68;98607.02;231726;202;137322;-63
2023/12/30 09:53:49;;;;;;;4.10;1.30;;;;;;;12.04;51.79;98593.58;232173;204;151576;-61
2023/12/30 09:58:54;;;;;;;3.70;1.20;;;;;;;12.13;51.54;98586.89;231992;197;137820;-64
2023/12/30 10:03:57;;;;;;;3.80;1.20;;;;;;;12.20;51.12;98602.76;232075;201;137604;-63
2023/12/30 10:09:01;;;;;;;3.10;1.30;;;;;;;12.29;50.72;98592.27;231993;197;153242;-63
2023/12/30 10:14:04;;;;;;;66.90;51.50;;;;;;;12.38;50.31;98596.04;231949;198;136835;-59
2023/12/30 10:19:13;;;;;;;5.00;1.50;;;;;;;12.45;49.84;98602.95;231784;197;138848;-64
2023/12/30 10:24:16;;;;;;;4.00;1.20;;;;;;;12.48;49.45;98613.56;231900;204;151819;-63
2023/12/30 10:29:19;;;;;;;4.40;1.30;;;;;;;12.49;49.61;98605.98;231902;204;137726;-63
2023/12/30 10:34:23;;;;;;;3.40;1.50;;;;;;;12.57;49.66;98610.55;231861;201;137704;-63
2023/12/30 10:39:28;;;;;;;3.10;1.30;;;;;;;12.71;49.78;98616.37;231927;204;151300;-63
2023/12/30 10:44:31;;;;;;;2.10;1.20;;;;;;;12.83;49.08;98631.70;232085;201;137550;-63
2023/12/30 10:49:36;;;;;;;2.90;1.20;;;;;;;12.78;48.91;98641.70;231957;198;136612;-62
2023/12/30 10:54:47;;;;;;;4.60;1.40;;;;;;;12.71;49.32;98633.37;232140;200;152657;-64
2023/12/30 10:59:52;;;;;;;3.70;1.20;;;;;;;12.70;49.27;98640.86;231748;204;138038;-59
2023/12/30 11:04:57;;;;;;;3.10;1.50;;;;;;;12.72;49.51;98638.60;231780;204;137274;-54
2023/12/30 11:10:01;;;;;;;3.60;1.20;;;;;;;12.79;49.55;98646.38;232109;197;154197;-57
2023/12/30 11:15:21;;;;;;;2.60;1.30;;;;;;;12.86;49.35;98646.23;232015;204;138806;-58
2023/12/30 11:20:32;;;;;;;1.70;1.20;;;;;;;12.84;49.07;98648.68;231733;197;140327;-59
2023/12/30 11:25:38;;;;;;;5.70;1.20;;;;;;;12.79;49.15;98653.86;232005;201;152273;-59
2023/12/30 11:30:44;;;;;;;2.60;1.30;;;;;;;12.78;48.75;98669.64;231939;197;139968;-57
2023/12/30 11:35:51;;;;;;;2.60;1.70;;;;;;;12.54;50.98;98681.95;231989;200;136958;-57
2023/12/30 11:40:54;;;;;;;3.10;1.70;;;;;;;12.14;53.24;98695.08;231783;202;151214;-58
2023/12/30 11:45:59;;;;;;;3.20;1.90;;;;;;;11.97;54.88;98710.40;232002;204;137711;-56
2023/12/30 11:51:04;;;;;;;3.20;2.10;;;;;;;11.70;56.25;98726.41;231580;198;137439;-56
2023/12/30 11:56:07;;;;;;;4.40;2.60;;;;;;;11.37;57.48;98746.13;232172;197;151959;-60
2023/12/30 12:01:12;;;;;;;3.40;1.90;;;;;;;11.05;58.12;98735.71;232256;204;136708;-58
2023/12/30 12:06:16;;;;;;;3.90;2.20;;;;;;;10.72;58.51;98746.11;232149;198;139211;-56
2023/12/30 12:11:19;;;;;;;3.00;1.60;;;;;;;10.55;59.04;98737.00;231712;198;152720;-57
2023/12/30 12:16:23;;;;;;;2.00;1.00;;;;;;;10.41;58.80;98745.57;232129;198;138822;-58
2023/12/30 12:21:26;;;;;;;1.30;0.80;;;;;;;10.20;58.57;98754.16;232212;201;136704;-57
2023/12/30 12:26:30;;;;;;;1.40;0.90;;;;;;;10.03;59.98;98757.92;232119;198;151577;-59
2023/12/30 12:31:35;;;;;;;1.70;0.90;;;;;;;9.81;60.59;98764.47;232104;198;136728;-59
2023/12/30 12:36:38;;;;;;;1.20;0.90;;;;;;;9.61;61.25;98757.21;232075;197;136694;-59
2023/12/30 12:41:41;;;;;;;1.20;0.90;;;;;;;9.63;61.19;98760.10;231945;199;152200;-59
2023/12/30 12:46:45;;;;;;;1.80;1.00;;;;;;;9.66;61.40;98770.36;231991;201;137042;-58
2023/12/30 12:51:50;;;;;;;1.80;1.00;;;;;;;9.77;61.34;98775.88;231950;198;136653;-59
2023/12/30 12:56:54;;;;;;;2.20;1.10;;;;;;;9.85;61.49;98769.89;232142;204;151289;-57
2023/12/30 13:01:57;;;;;;;2.20;1.30;;;;;;;9.89;61.71;98773.73;231905;200;137214;-59
2023/12/30 13:07:00;;;;;;;2.50;1.50;;;;;;;9.89;61.76;98780.45;231950;201;137263;-59
2023/12/30 13:12:05;;;;;;;2.80;1.70;;;;;;;9.90;61.83;98797.02;232112;204;151431;-58
2023/12/30 13:17:12;;;;;;;3.00;1.50;;;;;;;9.93;62.38;98791.48;232154;197;137681;-60
2023/12/30 13:22:15;;;;;;;3.70;1.40;;;;;;;9.95;62.53;98790.31;232154;204;140015;-58
2023/12/30 13:27:19;;;;;;;3.80;1.60;;;;;;;9.94;62.53;98795.54;231364;204;151759;-59
2023/12/30 13:32:27;;;;;;;2.90;1.60;;;;;;;9.88;62.25;98801.77;232120;197;137463;-59
2023/12/30 13:37:31;;;;;;;3.60;1.40;;;;;;;9.84;62.18;98807.16;231707;202;137740;-57
2023/12/30 13:42:34;;;;;;;2.90;1.20;;;;;;;9.73;62.58;98821.11;232031;202;152253;-60
2023/12/30 13:52:50;;;;;;;4.20;1.40;;;;;;;9.49;64.13;98822.11;232037;198;136853;-57
2023/12/30 13:57:54;;;;;;;2.20;1.50;;;;;;;9.47;64.75;98827.88;232027;200;151317;-58
2023/12/30 14:03:02;;;;;;;4.20;1.60;;;;;;;9.45;64.77;98818.95;231979;200;137795;-57
2023/12/30 14:13:21;;;;;;;4.00;1.60;;;;;;;9.48;64.39;98819.50;232125;201;151780;-59
2023/12/30 14:18:24;;;;;;;2.80;1.00;;;;;;;9.43;64.65;98816.94;232276;198;137349;-59
2023/12/30 14:23:28;;;;;;;3.90;1.30;;;;;;;9.44;64.83;98812.09;231963;204;137832;-64
2023/12/30 14:28:31;;;;;;;3.60;1.20;;;;;;;9.46;64.88;98816.02;232129;197;151292;-62
2023/12/30 14:33:34;;;;;;;3.90;1.30;;;;;;;9.45;64.89;98801.77;232101;204;137224;-58
2023/12/30 14:38:40;;;;;;;1.70;0.90;;;;;;;9.44;64.38;98797.95;232082;204;137602;-56
2023/12/30 14:43:49;;;;;;;1.10;0.60;;;;;;;9.36;64.11;98814.73;232233;204;151751;-58
2023/12/30 14:48:53;;;;;;;2.00;0.90;;;;;;;9.34;64.29;98822.45;231827;198;137689;-54
2023/12/30 14:53:56;;;;;;;2.50;1.00;;;;;;;9.34;64.07;98831.66;232217;201;136461;-58
2023/12/30 14:59:00;;;;;;;3.30;1.10;;;;;;;9.35;63.90;98845.61;232104;204;151686;-55
2023/12/30 15:04:04;;;;;;;2.20;1.40;;;;;;;9.32;63.84;98853.36;232166;197;137549;-55
2023/12/30 15:09:09;;;;;;;2.20;1.20;;;;;;;9.32;63.59;98851.13;232154;204;137306;-57
2023/12/30 15:14:13;;;;;;;4.80;1.70;;;;;;;9.35;63.20;98864.86;231869;204;151350;-58
2023/12/30 15:19:17;;;;;;;2.70;1.50;;;;;;;9.37;63.02;98868.84;231972;198;140286;-56
2023/12/30 15:24:21;;;;;;;5.30;1.70;;;;;;;9.35;63.06;98876.73;232232;204;137382;-58
2023/12/30 15:29:24;;;;;;;2.70;1.40;;;;;;;9.30;63.56;98887.48;231756;201;151756;-59
2023/12/30 15:34:27;;;;;;;2.70;1.60;;;;;;;9.25;63.76;98893.46;232065;204;137221;-56
2023/12/30 15:39:31;;;;;;;3.30;1.80;;;;;;;9.21;63.99;98899.70;232094;204;136739;-56
2023/12/30 15:44:37;;;;;;;6.10;1.80;;;;;;;9.17;64.41;98902.39;231920;198;151830;-56
2023/12/30 15:49:41;;;;;;;;;;;;;;;9.12;64.76;98900.20;231950;199;137562;-57
2023/12/30 15:54:44;;;;;;;3.40;2.00;;;;;;;9.08;65.24;98899.56;232178;201;136005;-58
2023/12/30 15:59:48;;;;;;;3.20;2.20;;;;;;;9.12;65.38;98902.52;232051;199;152182;-58
2023/12/30 16:04:52;;;;;;;4.90;2.50;;;;;;;9.18;65.49;98905.21;231957;197;140178;-59
2023/12/30 16:09:55;;;;;;;5.50;3.20;;;;;;;9.16;65.55;98898.08;232075;200;137071;-53
2023/12/30 16:14:58;;;;;;;5.20;2.90;;;;;;;9.17;65.82;98889.32;232096;204;151859;-57
2023/12/30 16:20:03;;;;;;;5.70;2.90;;;;;;;9.24;65.71;98895.27;231996;204;137421;-57
2023/12/30 16:25:07;;;;;;;4.80;3.30;;;;;;;9.23;65.80;98900.09;232092;204;137423;-59
2023/12/30 16:30:13;;;;;;;4.60;3.00;;;;;;;9.23;65.93;98902.20;232060;199;152211;-60
2023/12/30 16:35:16;;;;;;;5.10;2.90;;;;;;;9.26;66.03;98897.64;232169;198;137121;-59
2023/12/30 16:40:20;;;;;;;6.70;3.90;;;;;;;9.27;66.12;98896.17;231859;204;137622;-59
2023/12/30 16:45:23;;;;;;;7.20;3.50;;;;;;;9.28;66.28;98904.98;231982;205;152318;-60
2023/12/30 16:50:27;;;;;;;9.90;4.20;;;;;;;9.29;66.32;98899.41;232185;201;137673;-60
2023/12/30 16:55:30;;;;;;;8.00;3.90;;;;;;;9.32;66.47;98912.02;232166;201;137326;-60
2023/12/30 17:00:34;;;;;;;6.30;3.80;;;;;;;9.31;66.71;98914.33;232110;197;152764;-60
2023/12/30 17:05:37;;;;;;;7.30;4.10;;;;;;;9.26;66.92;98918.91;232210;204;137113;-61
2023/12/30 17:10:40;;;;;;;8.40;4.60;;;;;;;9.30;67.05;98921.89;232080;197;136814;-60
2023/12/30 17:15:44;;;;;;;9.80;4.90;;;;;;;9.33;67.23;98933.13;232233;204;152117;-60
2023/12/30 17:20:47;;;;;;;9.00;4.50;;;;;;;9.32;67.28;98941.17;232045;202;140422;-63
2023/12/30 17:25:50;;;;;;;10.20;5.00;;;;;;;9.33;67.59;98941.14;231862;202;136785;-60
2023/12/30 17:30:54;;;;;;;8.50;5.60;;;;;;;9.31;67.84;98936.31;232234;197;152215;-60
2023/12/30 17:35:57;;;;;;;10.80;5.50;;;;;;;9.29;67.93;98937.30;232141;197;136876;-60
2023/12/30 17:41:01;;;;;;;9.70;6.40;;;;;;;9.29;68.10;98944.92;232118;198;137483;-60
2023/12/30 17:46:04;;;;;;;10.20;5.60;;;;;;;9.30;68.19;98942.92;232078;201;153570;-59
2023/12/30 17:51:07;;;;;;;10.10;5.80;;;;;;;9.30;68.42;98942.39;231959;204;136768;-60
2023/12/30 17:56:11;;;;;;;9.80;6.00;;;;;;;9.28;68.47;98947.30;232120;204;137154;-60
2023/12/30 18:01:14;;;;;;;9.60;5.30;;;;;;;9.29;68.43;98956.08;231968;204;151999;-60
2023/12/30 18:06:17;;;;;;;9.20;6.10;;;;;;;9.36;68.37;98934.77;232244;204;137020;-60
2023/12/30 18:11:22;;;;;;;10.10;6.30;;;;;;;9.43;68.29;98933.80;232048;197;136325;-60
2023/12/30 18:16:25;;;;;;;10.20;6.00;;;;;;;9.48;68.24;98937.97;232076;197;152272;-59
2023/12/30 18:21:28;;;;;;;10.80;6.30;;;;;;;9.47;68.26;98934.45;231970;198;136871;-59
2023/12/30 18:26:31;;;;;;;11.50;6.90;;;;;;;9.44;68.34;98935.33;232138;204;138032;-61
2023/12/30 18:31:35;;;;;;;9.30;6.70;;;;;;;9.39;68.52;98953.70;232038;198;152192;-60
2023/12/30 18:36:38;;;;;;;14.90;7.80;;;;;;;9.39;68.81;98957.25;231651;204;137322;-61
2023/12/30 18:41:41;;;;;;;19.20;12.60;;;;;;;9.41;68.83;98976.63;232140;198;137580;-58
2023/12/30 18:46:48;;;;;;;11.40;8.00;;;;;;;9.35;68.98;98985.80;232024;201;151191;-59
2023/12/30 18:51:51;;;;;;;12.90;7.90;;;;;;;9.33;69.12;98982.38;232031;198;137936;-61
2023/12/30 18:56:54;;;;;;;13.90;7.90;;;;;;;9.35;69.33;98982.44;232159;201;137526;-59
2023/12/30 19:02:00;;;;;;;12.10;7.70;;;;;;;9.41;69.32;98993.58;231882;204;152931;-61
2023/12/30 19:07:04;;;;;;;12.70;8.20;;;;;;;9.45;69.42;99008.23;232001;197;138386;-59
2023/12/30 19:12:08;;;;;;;14.90;8.80;;;;;;;9.48;69.71;99015.86;232282;204;137713;-61
2023/12/30 19:17:11;;;;;;;12.90;8.50;;;;;;;9.46;69.86;99018.29;232061;198;152637;-57
2023/12/30 19:22:14;;;;;;;11.60;6.50;;;;;;;9.37;69.15;99014.56;231855;201;138582;-61
2023/12/30 19:27:18;;;;;;;11.50;6.90;;;;;;;9.26;68.48;98994.67;231994;201;137588;-58
2023/12/30 19:32:21;;;;;;;10.90;7.40;;;;;;;9.18;68.54;98979.69;232091;198;151362;-61
2023/12/30 19:37:24;;;;;;;10.90;7.00;;;;;;;9.14;68.59;98970.39;232024;204;136880;-60
2023/12/30 19:42:28;;;;;;;12.40;7.50;;;;;;;9.12;68.65;98986.59;232207;198;136894;-59
2023/12/30 19:47:31;;;;;;;11.70;7.40;;;;;;;9.13;68.41;98986.70;232074;202;151622;-60
2023/12/30 19:52:34;;;;;;;9.90;6.10;;;;;;;9.08;68.45;98991.42;232000;198;139152;-59
2023/12/30 19:57:40;;;;;;;10.20;5.90;;;;;;;9.14;67.74;98998.89;231731;204;137589;-61
2023/12/30 20:02:44;;;;;;;8.40;5.50;;;;;;;9.21;67.13;99003.08;232133;204;151167;-61
2023/12/30 20:07:48;;;;;;;13.50;6.50;;;;;;;9.28;66.72;99003.20;231900;204;137107;-61
2023/12/30 20:12:53;;;;;;;13.00;7.00;;;;;;;9.28;66.70;99001.42;232024;204;136769;-57
2023/12/30 20:17:57;;;;;;;13.10;7.10;;;;;;;9.21;66.60;99006.61;231478;198;151604;-60
2023/12/30 20:23:02;;;;;;;11.10;7.30;;;;;;;9.13;66.37;99008.80;231882;204;137144;-61
2023/12/30 20:28:07;;;;;;;13.70;7.70;;;;;;;9.05;66.71;99010.17;232171;204;137615;-59
2023/12/30 20:33:13;;;;;;;12.20;8.00;;;;;;;8.96;67.17;98999.86;232055;198;151288;-63
2023/12/30 20:38:16;;;;;;;16.40;7.90;;;;;;;8.93;67.47;98988.21;232135;197;138078;-58
2023/12/30 20:43:19;;;;;;;12.00;7.50;;;;;;;8.89;67.60;98991.45;232101;201;137708;-58
2023/12/30 20:48:23;;;;;;;12.20;7.40;;;;;;;8.83;67.86;99001.17;232046;199;151252;-59
2023/12/30 20:53:26;;;;;;;14.60;8.20;;;;;;;8.79;67.96;99004.94;232030;204;137349;-57
2023/12/30 20:58:29;;;;;;;14.40;8.60;;;;;;;8.79;68.18;99006.54;231779;197;138485;-59
2023/12/30 21:03:33;;;;;;;15.30;8.60;;;;;;;8.87;68.24;99006.59;232117;204;152666;-59
2023/12/30 21:08:36;;;;;;;13.30;8.20;;;;;;;8.87;68.24;99002.54;232072;204;137972;-60
2023/12/30 21:13:42;;;;;;;14.60;7.60;;;;;;;8.80;68.28;99002.39;232112;204;137658;-60
2023/12/30 21:18:46;;;;;;;11.80;7.30;;;;;;;8.75;68.23;99004.25;232013;198;151135;-62
2023/12/30 21:23:50;;;;;;;12.20;7.00;;;;;;;8.62;68.33;99010.26;232148;204;139631;-61
2023/12/30 21:28:53;;;;;;;12.80;6.70;;;;;;;8.48;68.56;99007.48;231961;201;138300;-61
2023/12/30 21:33:56;;;;;;;9.80;6.00;;;;;;;8.38;68.78;99013.13;232083;204;152065;-61
2023/12/30 21:39:00;;;;;;;9.50;5.60;;;;;;;8.29;69.07;99020.48;231894;200;137121;-60
2023/12/30 21:44:04;;;;;;;9.60;6.80;;;;;;;8.28;69.16;99029.19;232099;196;137839;-60
2023/12/30 21:49:07;;;;;;;12.30;6.80;;;;;;;8.35;69.45;99032.58;232034;198;151914;-61
2023/12/30 21:54:12;;;;;;;12.70;6.90;;;;;;;8.38;69.23;99047.10;232093;204;137739;-62
2023/12/30 21:59:15;;;;;;;12.30;6.80;;;;;;;8.39;69.19;99042.08;232057;197;137284;-58
2023/12/30 22:04:19;;;;;;;9.90;6.30;;;;;;;8.37;68.98;99044.98;232158;204;151555;-60
2023/12/30 22:09:22;;;;;;;9.40;5.50;;;;;;;8.31;68.92;99044.57;232058;204;136785;-60
2023/12/30 22:14:26;;;;;;;10.10;6.20;;;;;;;8.23;69.16;99051.90;231983;201;137167;-61
2023/12/30 22:19:30;;;;;;;9.20;5.90;;;;;;;8.19;69.22;99048.39;231932;197;152809;-61
2023/12/30 22:24:34;;;;;;;10.10;6.10;;;;;;;8.15;69.21;99049.50;232009;198;137502;-62
2023/12/30 22:29:37;;;;;;;11.60;6.20;;;;;;;8.06;69.14;99051.39;232163;200;137229;-62
2023/12/30 22:34:40;;;;;;;10.40;5.70;;;;;;;7.95;69.42;99040.85;231923;198;151931;-63
2023/12/30 22:39:44;;;;;;;12.30;6.70;;;;;;;7.90;69.61;99035.27;232026;201;136747;-61
2023/12/30 22:44:47;;;;;;;11.80;6.80;;;;;;;7.79;69.86;99034.89;231990;204;137042;-62
2023/12/30 22:49:50;;;;;;;11.20;6.40;;;;;;;7.80;70.21;99047.43;231978;197;153145;-62
2023/12/30 22:54:54;;;;;;;12.60;7.10;;;;;;;7.91;70.44;99036.98;231738;197;137442;-62
2023/12/30 22:59:57;;;;;;;12.20;7.40;;;;;;;8.00;70.32;99038.77;231843;204;138987;-62
2023/12/30 23:05:02;;;;;;;13.20;7.80;;;;;;;8.05;70.23;99037.84;231932;198;154506;-61
2023/12/30 23:10:06;;;;;;;11.70;7.40;;;;;;;8.06;70.30;99034.08;231796;202;137647;-59
2023/12/30 23:15:13;;;;;;;13.20;8.00;;;;;;;8.09;70.20;99043.30;231859;198;137543;-62
2023/12/30 23:20:17;;;;;;;12.00;7.70;;;;;;;8.12;70.19;99043.13;231992;197;151350;-63
2023/12/30 23:25:20;;;;;;;13.00;7.40;;;;;;;8.13;70.06;99041.29;231891;198;137298;-61
2023/12/30 23:30:24;;;;;;;11.80;7.20;;;;;;;8.08;70.13;99040.30;232010;198;137682;-61
2023/12/30 23:35:27;;;;;;;13.80;8.20;;;;;;;8.04;70.32;99041.60;231765;204;152059;-59
2023/12/30 23:40:30;;;;;;;14.20;8.50;;;;;;;8.01;70.41;99041.77;231485;200;137506;-60
2023/12/30 23:45:34;;;;;;;14.70;7.50;;;;;;;8.04;70.38;99041.77;231594;202;139398;-54
2023/12/30 23:50:37;;;;;;;16.30;8.60;;;;;;;8.07;70.44;99039.65;231913;197;151943;-59